createdAt,value
2023-02-09T00:01:20.141Z,99.31
2023-02-09T00:04:05.044Z,99.79
2023-02-09T00:06:50.450Z,99.99
2023-02-09T00:09:35.642Z,100.00
2023-02-09T00:12:47.830Z,100.00
2023-02-09T00:15:33.002Z,100.00
2023-02-09T00:18:19.477Z,100.00
2023-02-09T00:21:11.184Z,100.00
2023-02-09T00:23:56.164Z,100.00
2023-02-09T00:26:41.795Z,100.00
2023-02-09T00:29:27.607Z,100.00
2023-02-09T00:32:12.537Z,100.00
2023-02-09T00:34:57.509Z,100.00
2023-02-09T00:37:42.574Z,100.00
2023-02-09T00:40:27.912Z,100.00
2023-02-09T00:43:13.159Z,100.00
2023-02-09T00:45:58.409Z,100.00
2023-02-09T00:48:43.600Z,100.00
2023-02-09T00:51:28.618Z,100.00
2023-02-09T00:54:14.298Z,100.00
2023-02-09T00:57:05.140Z,98.97
2023-02-09T00:59:50.528Z,98.47
2023-02-09T01:02:35.680Z,98.77
2023-02-09T01:05:21.056Z,99.73
2023-02-09T01:08:06.331Z,99.55
2023-02-09T01:10:51.668Z,99.91
2023-02-09T01:13:37.123Z,99.67
2023-02-09T01:16:23.297Z,99.63
2023-02-09T01:19:11.528Z,99.41
2023-02-09T01:21:57.112Z,99.84
2023-02-09T01:24:42.122Z,99.77
2023-02-09T01:27:27.226Z,99.33
2023-02-09T01:30:13.202Z,100.00
2023-02-09T01:32:58.687Z,100.00
2023-02-09T01:35:43.670Z,100.00
2023-02-09T01:38:28.711Z,100.00
2023-02-09T01:41:14.205Z,100.00
2023-02-09T01:44:03.851Z,99.97
2023-02-09T01:46:48.989Z,99.91
2023-02-09T01:49:33.975Z,100.00
2023-02-09T01:52:23.499Z,100.00
2023-02-09T01:55:15.328Z,100.00
2023-02-09T01:58:13.958Z,100.00
2023-02-09T02:01:00.270Z,100.00
2023-02-09T02:03:46.196Z,100.00
2023-02-09T02:06:31.522Z,100.00
2023-02-09T02:09:18.119Z,100.00
2023-02-09T02:16:05.896Z,100.00
2023-02-09T02:19:02.904Z,100.00
2023-02-09T02:22:13.109Z,100.00
2023-02-09T02:24:57.851Z,100.00
2023-02-09T02:28:16.706Z,100.00
2023-02-09T02:31:12.995Z,100.00
2023-02-09T02:34:10.203Z,100.00
2023-02-09T02:37:28.333Z,100.00
2023-02-09T02:40:21.845Z,100.00
2023-02-09T02:43:36.482Z,100.00
2023-02-09T02:46:39.656Z,100.00
2023-02-09T02:49:42.487Z,100.00
2023-02-09T02:52:27.692Z,100.00
2023-02-09T02:55:16.829Z,100.00
2023-02-09T02:58:07.735Z,100.00
2023-02-09T03:00:56.608Z,100.00
2023-02-09T03:03:43.842Z,100.00
2023-02-09T03:06:35.128Z,100.00
2023-02-09T03:09:20.324Z,100.00
2023-02-09T03:12:24.014Z,100.00
2023-02-09T03:15:28.969Z,100.00
2023-02-09T03:18:33.464Z,100.00
2023-02-09T03:21:43.553Z,100.00
2023-02-09T03:25:02.888Z,100.00
2023-02-09T03:27:59.092Z,100.00
2023-02-09T03:30:49.733Z,100.00
2023-02-09T03:33:38.705Z,100.00
2023-02-09T03:36:25.803Z,100.00
2023-02-09T03:39:10.699Z,100.00
2023-02-09T03:41:56.084Z,100.00
2023-02-09T03:44:41.192Z,100.00
2023-02-09T03:47:26.401Z,100.00
2023-02-09T03:50:11.665Z,100.00
2023-02-09T03:52:56.803Z,100.00
2023-02-09T03:55:41.885Z,100.00
2023-02-09T03:58:27.380Z,100.00
2023-02-09T04:01:12.686Z,100.00
2023-02-09T04:03:58.859Z,100.00
2023-02-09T04:06:43.964Z,100.00
2023-02-09T04:09:29.515Z,100.00
2023-02-09T04:12:14.712Z,100.00
2023-02-09T04:14:59.927Z,100.00
2023-02-09T04:17:45.021Z,100.00
2023-02-09T04:20:30.249Z,100.00
2023-02-09T04:23:15.664Z,100.00
2023-02-09T04:26:00.746Z,100.00
2023-02-09T04:28:46.019Z,100.00
2023-02-09T04:31:31.692Z,100.00
2023-02-09T04:34:17.128Z,100.00
2023-02-09T04:37:02.320Z,100.00
2023-02-09T04:39:47.666Z,100.00
2023-02-09T04:42:32.959Z,100.00
2023-02-09T04:45:18.070Z,100.00
2023-02-09T04:48:03.488Z,100.00
2023-02-09T04:50:49.235Z,100.00
2023-02-09T04:53:34.267Z,100.00
2023-02-09T04:56:19.609Z,100.00
2023-02-09T04:59:23.596Z,100.00
2023-02-09T05:02:08.983Z,100.00
2023-02-09T05:04:54.299Z,100.00
2023-02-09T05:07:39.659Z,100.00
2023-02-09T05:10:25.005Z,100.00
2023-02-09T05:13:09.777Z,100.00
2023-02-09T05:15:55.412Z,100.00
2023-02-09T05:18:40.613Z,100.00
2023-02-09T05:21:25.629Z,100.00
2023-02-09T05:24:10.755Z,100.00
2023-02-09T05:26:55.967Z,100.00
2023-02-09T05:29:41.256Z,100.00
2023-02-09T05:32:26.292Z,100.00
2023-02-09T05:35:11.836Z,100.00
2023-02-09T05:37:56.899Z,100.00
2023-02-09T05:40:44.216Z,100.00
2023-02-09T05:43:30.545Z,100.00
2023-02-09T05:46:15.860Z,100.00
2023-02-09T05:49:01.099Z,100.00
2023-02-09T05:51:46.265Z,100.00
2023-02-09T05:54:31.640Z,100.00
2023-02-09T05:57:17.850Z,100.00
2023-02-09T06:00:05.187Z,100.00
2023-02-09T06:02:50.070Z,100.00
2023-02-09T06:05:35.152Z,100.00
2023-02-09T06:08:20.375Z,100.00
2023-02-09T06:11:06.136Z,100.00
2023-02-09T06:13:51.277Z,100.00
2023-02-09T06:16:36.946Z,100.00
2023-02-09T06:19:22.090Z,100.00
2023-02-09T06:22:07.381Z,100.00
2023-02-09T06:24:52.835Z,100.00
2023-02-09T06:27:38.164Z,100.00
2023-02-09T06:30:23.326Z,100.00
2023-02-09T06:33:08.188Z,100.00
2023-02-09T06:35:53.236Z,100.00
2023-02-09T06:38:38.997Z,100.00
2023-02-09T06:41:24.245Z,100.00
2023-02-09T06:44:09.718Z,100.00
2023-02-09T06:46:54.924Z,100.00
2023-02-09T06:49:40.000Z,100.00
2023-02-09T06:52:25.003Z,100.00
2023-02-09T06:55:10.424Z,100.00
2023-02-09T06:57:56.061Z,100.00
2023-02-09T07:00:41.261Z,100.00
2023-02-09T07:03:26.570Z,100.00
2023-02-09T07:06:17.782Z,100.00
2023-02-09T07:09:03.331Z,100.00
2023-02-09T07:11:48.544Z,100.00
2023-02-09T07:14:33.566Z,100.00
2023-02-09T07:17:18.656Z,100.00
2023-02-09T07:20:04.887Z,100.00
2023-02-09T07:22:49.722Z,100.00
2023-02-09T07:25:34.799Z,100.00
2023-02-09T07:28:20.699Z,100.00
2023-02-09T07:31:09.593Z,100.00
2023-02-09T07:33:55.740Z,100.00
2023-02-09T07:36:40.691Z,100.00
2023-02-09T07:39:26.449Z,100.00
2023-02-09T07:42:11.807Z,100.00
2023-02-09T07:44:57.065Z,100.00
2023-02-09T07:47:42.400Z,100.00
2023-02-09T07:50:27.661Z,100.00
2023-02-09T07:53:12.822Z,100.00
2023-02-09T07:55:57.787Z,100.00
2023-02-09T07:58:43.533Z,100.00
2023-02-09T08:01:28.431Z,100.00
2023-02-09T08:04:13.412Z,100.00
2023-02-09T08:06:58.524Z,100.00
2023-02-09T08:09:46.442Z,100.00
2023-02-09T08:12:50.733Z,100.00
2023-02-09T08:15:45.330Z,100.00
2023-02-09T08:18:42.744Z,100.00
2023-02-09T08:21:31.500Z,100.00
2023-02-09T08:24:20.467Z,100.00
2023-02-09T08:27:05.857Z,100.00
2023-02-09T08:29:51.886Z,100.00
2023-02-09T08:32:37.049Z,100.00
2023-02-09T08:35:22.503Z,100.00
2023-02-09T08:38:07.872Z,100.00
2023-02-09T08:40:53.119Z,100.00
2023-02-09T08:43:38.218Z,100.00
2023-02-09T08:46:23.560Z,100.00
2023-02-09T08:49:08.764Z,100.00
2023-02-09T08:58:38.134Z,100.00
2023-02-09T09:01:55.845Z,100.00
2023-02-09T09:05:06.800Z,100.00
2023-02-09T09:08:02.369Z,100.00
2023-02-09T09:11:30.651Z,100.00
2023-02-09T09:14:58.681Z,100.00
2023-02-09T09:18:08.341Z,100.00
2023-02-09T09:25:08.395Z,100.00
2023-02-09T09:27:27.215Z,100.00
2023-02-09T09:30:13.261Z,100.00
2023-02-09T09:33:01.537Z,100.00
2023-02-09T09:36:12.293Z,100.00
2023-02-09T09:38:59.976Z,100.00
2023-02-09T09:42:08.208Z,100.00
2023-02-09T09:44:56.956Z,100.00
2023-02-09T09:47:44.279Z,100.00
2023-02-09T09:50:48.351Z,100.00
2023-02-09T09:53:38.872Z,100.00
2023-02-09T09:56:30.181Z,100.00
2023-02-09T09:59:43.694Z,100.00
2023-02-09T10:03:00.116Z,100.00
2023-02-09T10:05:57.587Z,100.00
2023-02-09T10:08:50.128Z,100.00
2023-02-09T10:11:47.041Z,100.00
2023-02-09T10:14:32.497Z,100.00
2023-02-09T10:17:18.098Z,100.00
2023-02-09T10:20:08.047Z,100.00
2023-02-09T10:22:55.310Z,100.00
2023-02-09T10:26:03.903Z,100.00
2023-02-09T10:28:54.936Z,100.00
2023-02-09T10:31:45.143Z,100.00
2023-02-09T10:35:06.055Z,100.00
2023-02-09T10:38:06.807Z,100.00
2023-02-09T10:40:52.524Z,100.00
2023-02-09T10:43:41.192Z,100.00
2023-02-09T10:46:29.635Z,100.00
2023-02-09T10:49:36.070Z,100.00
2023-02-09T10:52:28.639Z,100.00
2023-02-09T10:55:25.408Z,100.00
2023-02-09T10:58:10.634Z,100.00
2023-02-09T11:01:14.200Z,100.00
2023-02-09T11:04:05.424Z,100.00
2023-02-09T11:07:09.161Z,100.00
2023-02-09T11:09:57.112Z,100.00
2023-02-09T11:12:43.674Z,100.00
2023-02-09T11:15:39.540Z,100.00
2023-02-09T11:18:33.785Z,100.00
2023-02-09T11:21:33.791Z,100.00
2023-02-09T11:24:18.957Z,100.00
2023-02-09T11:27:24.840Z,100.00
2023-02-09T11:30:25.360Z,100.00
2023-02-09T11:33:12.383Z,100.00
2023-02-09T11:36:33.693Z,100.00
2023-02-09T11:39:34.559Z,100.00
2023-02-09T11:42:44.939Z,100.00
2023-02-09T11:45:43.438Z,100.00
2023-02-09T11:48:40.526Z,100.00
2023-02-09T11:51:26.915Z,100.00
2023-02-09T11:54:25.022Z,100.00
2023-02-09T11:57:26.106Z,100.00
2023-02-09T12:00:21.006Z,100.00
2023-02-09T12:03:14.039Z,100.00
2023-02-09T12:06:00.199Z,100.00
2023-02-09T12:09:20.085Z,100.00
2023-02-09T12:12:14.599Z,100.00
2023-02-09T12:15:18.127Z,100.00
2023-02-09T12:18:15.716Z,100.00
2023-02-09T12:21:06.819Z,100.00
2023-02-09T12:23:52.111Z,100.00
2023-02-09T12:26:44.672Z,100.00
2023-02-09T12:29:35.416Z,100.00
2023-02-09T12:32:31.863Z,100.00
2023-02-09T12:35:37.477Z,100.00
2023-02-09T12:38:22.963Z,100.00
2023-02-09T12:41:09.237Z,100.00
2023-02-09T12:44:11.957Z,100.00
2023-02-09T12:46:58.175Z,100.00
2023-02-09T12:49:45.564Z,100.00
2023-02-09T12:52:31.105Z,100.00
2023-02-09T12:55:22.534Z,100.00
2023-02-09T12:58:36.248Z,100.00
2023-02-09T13:01:21.763Z,100.00
2023-02-09T13:04:13.116Z,100.00
2023-02-09T13:07:00.696Z,100.00
2023-02-09T13:09:51.088Z,100.00
2023-02-09T13:12:43.540Z,100.00
2023-02-09T13:15:54.722Z,100.00
2023-02-09T13:19:03.161Z,100.00
2023-02-09T13:22:02.058Z,100.00
2023-02-09T13:25:20.550Z,100.00
2023-02-09T13:28:20.738Z,100.00
2023-02-09T13:31:32.291Z,100.00
2023-02-09T13:34:40.538Z,100.00
2023-02-09T13:37:47.933Z,100.00
2023-02-09T13:40:44.871Z,100.00
2023-02-09T13:43:42.403Z,100.00
2023-02-09T13:46:44.731Z,100.00
2023-02-09T13:49:38.088Z,100.00
2023-02-09T13:52:35.714Z,100.00
2023-02-09T13:55:26.155Z,100.00
2023-02-09T13:58:21.220Z,100.00
2023-02-09T14:01:18.382Z,100.00
2023-02-09T14:04:30.527Z,100.00
2023-02-09T14:07:18.549Z,100.00
2023-02-09T14:10:19.302Z,100.00
2023-02-09T14:13:16.559Z,100.00
2023-02-09T14:16:20.690Z,100.00
2023-02-09T14:19:46.826Z,100.00
2023-02-09T14:22:37.519Z,99.75
2023-02-09T14:26:13.521Z,100.00
2023-02-09T14:30:08.158Z,99.84
2023-02-09T14:33:20.971Z,99.94
2023-02-09T14:36:28.990Z,99.80
2023-02-09T14:39:28.989Z,98.68
2023-02-09T14:42:39.351Z,99.15
2023-02-09T14:45:46.632Z,98.19
2023-02-09T14:48:36.571Z,97.32
2023-02-09T14:51:38.322Z,97.34
2023-02-09T15:02:32.473Z,97.44
2023-02-09T15:05:38.634Z,97.78
2023-02-09T15:08:47.975Z,97.84
2023-02-09T15:12:05.663Z,97.73
2023-02-09T15:16:18.514Z,97.68
2023-02-09T15:18:57.017Z,98.25
2023-02-09T15:22:05.310Z,98.43
2023-02-09T15:24:56.007Z,98.96
2023-02-09T15:28:02.366Z,99.25
2023-02-09T15:30:54.815Z,99.23
2023-02-09T15:33:44.424Z,99.24
2023-02-09T15:36:35.435Z,99.17
2023-02-09T15:39:23.842Z,98.76
2023-02-09T15:42:36.247Z,98.56
2023-02-09T15:45:42.662Z,98.82
2023-02-09T15:48:27.890Z,99.11
2023-02-09T15:51:14.322Z,99.02
2023-02-09T15:54:02.107Z,99.29
2023-02-09T15:56:48.049Z,99.63
2023-02-09T15:59:36.040Z,99.92
2023-02-09T16:02:22.424Z,100.00
2023-02-09T16:05:08.458Z,100.00
2023-02-09T16:07:58.859Z,100.00
2023-02-09T16:10:52.382Z,100.00
2023-02-09T16:13:45.087Z,100.00
2023-02-09T16:16:38.897Z,100.00
2023-02-09T16:19:26.274Z,100.00
2023-02-09T16:22:25.393Z,100.00
2023-02-09T16:25:33.586Z,100.00
2023-02-09T16:28:27.789Z,100.00
2023-02-09T16:31:16.659Z,100.00
2023-02-09T16:34:15.411Z,100.00
2023-02-09T16:37:01.287Z,100.00
2023-02-09T16:39:59.818Z,100.00
2023-02-09T16:42:48.671Z,100.00
2023-02-09T16:45:48.540Z,100.00
2023-02-09T16:49:21.338Z,100.00
2023-02-09T16:59:34.045Z,100.00
2023-02-09T17:02:30.692Z,100.00
2023-02-09T17:06:27.222Z,100.00
2023-02-09T17:25:57.166Z,100.00
2023-02-09T17:29:16.277Z,100.00
2023-02-09T17:32:35.453Z,100.00
2023-02-09T17:35:52.873Z,100.00
2023-02-09T17:38:39.482Z,100.00
2023-02-09T17:41:49.255Z,100.00
2023-02-09T17:44:46.465Z,100.00
2023-02-09T17:47:40.811Z,100.00
2023-02-09T17:51:25.331Z,100.00
2023-02-09T17:54:33.508Z,100.00
2023-02-09T18:05:55.982Z,100.00
2023-02-09T18:08:41.261Z,100.00
2023-02-09T18:11:56.867Z,100.00
2023-02-09T18:14:41.772Z,100.00
2023-02-09T18:17:26.851Z,100.00
2023-02-09T18:20:33.195Z,100.00
2023-02-09T18:23:18.301Z,100.00
2023-02-09T18:26:03.604Z,100.00
2023-02-09T18:28:50.230Z,100.00
2023-02-09T18:31:36.366Z,100.00
2023-02-09T18:34:22.619Z,100.00
2023-02-09T18:37:07.904Z,100.00
2023-02-09T18:39:52.911Z,100.00
2023-02-09T18:42:38.048Z,100.00
2023-02-09T18:45:23.114Z,100.00
2023-02-09T18:48:08.378Z,100.00
2023-02-09T18:50:53.750Z,100.00
2023-02-09T18:53:39.943Z,100.00
2023-02-09T18:56:26.834Z,100.00
2023-02-09T18:59:11.862Z,100.00
2023-02-09T19:01:57.648Z,100.00
2023-02-09T19:04:43.831Z,100.00
2023-02-09T19:07:30.398Z,100.00
2023-02-09T19:10:19.348Z,100.00
2023-02-09T19:13:04.827Z,100.00
2023-02-09T19:15:50.180Z,100.00
2023-02-09T19:18:35.733Z,100.00
2023-02-09T19:21:21.045Z,100.00
2023-02-09T19:24:06.419Z,100.00
2023-02-09T19:26:51.651Z,100.00
2023-02-09T19:29:39.031Z,100.00
2023-02-09T19:32:26.352Z,100.00
2023-02-09T19:35:11.631Z,100.00
2023-02-09T19:37:57.735Z,100.00
2023-02-09T19:40:43.272Z,100.00
2023-02-09T19:43:28.284Z,100.00
2023-02-09T19:46:13.593Z,100.00
2023-02-09T19:48:59.156Z,100.00
2023-02-09T19:51:44.053Z,100.00
2023-02-09T19:54:29.334Z,100.00
2023-02-09T19:57:14.154Z,100.00
2023-02-09T19:59:59.112Z,100.00
2023-02-09T20:02:45.619Z,100.00
2023-02-09T20:05:31.020Z,100.00
2023-02-09T20:08:18.644Z,100.00
2023-02-09T20:11:12.181Z,100.00
2023-02-09T20:13:57.105Z,100.00
2023-02-09T20:16:42.701Z,100.00
2023-02-09T20:19:27.909Z,100.00
2023-02-09T20:22:13.109Z,100.00
2023-02-09T20:24:58.619Z,100.00
2023-02-09T20:27:44.653Z,100.00
2023-02-09T20:30:30.104Z,100.00
2023-02-09T20:33:15.655Z,100.00
2023-02-09T20:36:05.418Z,100.00
2023-02-09T20:38:50.425Z,100.00
2023-02-09T20:41:35.695Z,100.00
2023-02-09T20:44:39.657Z,100.00
2023-02-09T20:47:26.096Z,100.00
2023-02-09T20:50:12.342Z,100.00
2023-02-09T20:52:58.513Z,100.00
2023-02-09T20:55:43.945Z,100.00
2023-02-09T20:58:29.057Z,100.00
2023-02-09T21:01:14.412Z,100.00
2023-02-09T21:04:00.305Z,100.00
2023-02-09T21:06:45.426Z,100.00
2023-02-09T21:09:30.763Z,100.00
2023-02-09T21:12:15.932Z,100.00
2023-02-09T21:15:01.093Z,100.00
2023-02-09T21:17:51.403Z,100.00
2023-02-09T21:20:36.681Z,100.00
2023-02-09T21:23:21.913Z,100.00
2023-02-09T21:26:09.230Z,100.00
2023-02-09T21:28:56.812Z,100.00
2023-02-09T21:31:42.371Z,100.00
2023-02-09T21:34:27.523Z,100.00
2023-02-09T21:37:14.053Z,100.00
2023-02-09T21:40:02.987Z,100.00
2023-02-09T21:42:49.055Z,100.00
2023-02-09T21:45:33.937Z,100.00
2023-02-09T21:48:19.151Z,100.00
2023-02-09T21:51:06.697Z,100.00
2023-02-09T21:53:52.433Z,100.00
2023-02-09T21:56:37.496Z,100.00
2023-02-09T21:59:22.726Z,100.00
2023-02-09T22:02:11.055Z,100.00
2023-02-09T22:04:56.441Z,100.00
2023-02-09T22:07:41.696Z,100.00
2023-02-09T22:10:27.025Z,100.00
2023-02-09T22:13:12.241Z,100.00
2023-02-09T22:15:57.968Z,100.00
2023-02-09T22:18:42.961Z,100.00
2023-02-09T22:21:27.955Z,100.00
2023-02-09T22:24:16.383Z,100.00
2023-02-09T22:27:02.791Z,100.00
2023-02-09T22:29:48.163Z,100.00
2023-02-09T22:32:33.441Z,100.00
2023-02-09T22:35:18.848Z,100.00
2023-02-09T22:38:05.277Z,100.00
2023-02-09T22:40:50.394Z,100.00
2023-02-09T22:43:35.340Z,100.00
2023-02-09T22:46:23.022Z,100.00
2023-02-09T22:49:20.819Z,100.00
2023-02-09T22:52:06.123Z,100.00
2023-02-09T22:54:51.756Z,100.00
2023-02-09T22:57:36.805Z,100.00
2023-02-09T23:00:21.894Z,100.00
2023-02-09T23:03:07.169Z,100.00
2023-02-09T23:05:52.127Z,100.00
2023-02-09T23:08:37.022Z,100.00
2023-02-09T23:11:22.899Z,100.00
2023-02-09T23:14:10.201Z,100.00
2023-02-09T23:16:56.353Z,100.00
2023-02-09T23:19:41.572Z,100.00
2023-02-09T23:22:26.796Z,100.00
2023-02-09T23:25:11.854Z,100.00
2023-02-09T23:27:56.782Z,100.00
2023-02-09T23:30:42.074Z,100.00
2023-02-09T23:33:27.253Z,100.00
2023-02-09T23:36:16.371Z,100.00
2023-02-09T23:39:05.099Z,100.00
2023-02-09T23:41:50.012Z,100.00
2023-02-09T23:44:34.979Z,100.00
2023-02-09T23:47:19.963Z,100.00
2023-02-09T23:50:05.065Z,100.00
2023-02-09T23:52:50.213Z,100.00
2023-02-09T23:55:35.470Z,100.00
2023-02-09T23:58:21.301Z,100.00
